Gibbon, Nebraska
Current Conditions -  °F | °C
As of 2:15 PM on Monday 26 Jan 2015 (Local Time) from KEAR Reporting Station
Clear Clear  
Wind Chill: 64°   Ceiling: Unl
Heat Index: 64°   Visibility: 10mi
Dew Point: 34°   Wind: 18mph
Humidity: 32%   Direction: 340°NNW
Pressure: 30"   Gusts: 24mph
Location:  40.75°N, 98.84°W
Report Text: KEAR 262015Z 34016G21KT 10SM CLR 18/01 A3000 RMK AO1
Loading
Personal Weather Stations






























Interactive Weather Map New forecast layout! Learn more

10-Day Weather Forecast

Advertisements
Track Severe Weather on mobile